Time;durP1;ratioP1;P1;durP2;ratioP2;P2;SDS_P1;SDS_P2;PMS_P1;PMS_P2;Temp;Humidity;BMP_temperature;BMP_pressure;BME280_temperature;BME280_humidity;BME280_pressure;Samples;Min_cycle;Max_cycle;Signal;HPM_P1;HPM_P2
2022/07/10 00:00:28;;;;;;;1.92;1.27;;;15.40;99.90;;;;;;5042562;28;20041;-82
2022/07/10 00:02:54;;;;;;;3.85;1.27;;;15.30;99.90;;;;;;5041972;28;20554;-82
2022/07/10 00:05:20;;;;;;;0.57;0.28;;;15.30;99.90;;;;;;5042452;28;20136;-82
2022/07/10 00:07:46;;;;;;;0.60;0.60;;;15.30;99.90;;;;;;5041127;28;20136;-81
2022/07/10 00:10:12;;;;;;;2.85;1.13;;;15.30;99.90;;;;;;5042949;28;20045;-81
2022/07/10 00:12:37;;;;;;;0.52;0.47;;;15.30;99.90;;;;;;5042086;28;20044;-81
2022/07/10 00:15:04;;;;;;;1.17;0.75;;;15.30;99.90;;;;;;5041702;28;20442;-82
2022/07/10 00:17:31;;;;;;;1.15;1.05;;;15.20;99.90;;;;;;5041968;28;20047;-81
2022/07/10 00:19:57;;;;;;;0.65;0.65;;;15.20;99.90;;;;;;5042222;28;20045;-81
2022/07/10 00:22:23;;;;;;;1.58;0.73;;;15.20;99.90;;;;;;5042010;28;20049;-82
2022/07/10 00:24:50;;;;;;;0.77;0.60;;;15.20;99.90;;;;;;5041352;28;20078;-82
2022/07/10 00:27:16;;;;;;;7.68;1.58;;;15.10;99.90;;;;;;5040610;28;20128;-82
2022/07/10 00:29:42;;;;;;;1.25;0.95;;;15.10;99.90;;;;;;5042322;28;20043;-82
2022/07/10 00:32:07;;;;;;;2.13;1.25;;;15.10;99.90;;;;;;5041619;28;20466;-82
2022/07/10 00:34:33;;;;;;;0.93;0.93;;;15.10;99.90;;;;;;5040478;28;20686;-82
2022/07/10 00:36:59;;;;;;;4.68;1.38;;;15.10;99.90;;;;;;5041251;28;20040;-83
2022/07/10 00:39:26;;;;;;;1.73;0.73;;;15.10;99.90;;;;;;5039997;28;20471;-83
2022/07/10 00:41:51;;;;;;;2.55;1.35;;;15.10;99.90;;;;;;5040287;28;20052;-82
2022/07/10 00:44:17;;;;;;;4.05;1.70;;;15.10;99.90;;;;;;5041516;28;20036;-82
2022/07/10 00:46:43;;;;;;;2.30;0.50;;;15.00;99.90;;;;;;5041975;28;20076;-82
2022/07/10 00:49:08;;;;;;;1.40;0.82;;;15.10;99.90;;;;;;5042561;28;20056;-82
2022/07/10 00:51:34;;;;;;;7.57;2.03;;;15.10;99.90;;;;;;5041253;28;20439;-83
2022/07/10 00:54:00;;;;;;;5.45;1.02;;;15.00;99.90;;;;;;5040255;28;20060;-82
2022/07/10 00:56:27;;;;;;;2.90;1.15;;;15.10;99.90;;;;;;5040052;28;20041;-82
2022/07/10 00:58:54;;;;;;;2.85;1.67;;;15.10;99.90;;;;;;5041494;28;20056;-83
2022/07/10 01:01:22;;;;;;;1.02;0.77;;;15.10;99.90;;;;;;5041183;28;20132;-83
2022/07/10 01:03:48;;;;;;;4.68;1.58;;;15.00;99.90;;;;;;5041432;28;20827;-82
2022/07/10 01:06:15;;;;;;;1.75;0.88;;;15.00;99.90;;;;;;5040674;28;20057;-77
2022/07/10 01:08:42;;;;;;;1.50;0.68;;;15.00;99.90;;;;;;5039917;28;20094;-82
2022/07/10 01:11:08;;;;;;;1.05;0.95;;;15.00;99.90;;;;;;5055514;28;20040;-82
2022/07/10 01:13:35;;;;;;;1.38;0.60;;;15.00;99.90;;;;;;5024761;28;20045;-82
2022/07/10 01:16:01;;;;;;;1.85;0.52;;;15.00;99.90;;;;;;5035729;28;20514;-82
2022/07/10 01:18:27;;;;;;;8.27;1.02;;;15.00;99.90;;;;;;5041319;28;20124;-79
2022/07/10 01:20:54;;;;;;;1.10;0.60;;;15.00;99.90;;;;;;5040631;28;20115;-82
2022/07/10 01:23:20;;;;;;;0.60;0.50;;;15.00;99.90;;;;;;5040320;28;20502;-82
2022/07/10 01:25:45;;;;;;;0.75;0.75;;;15.00;99.90;;;;;;5040691;28;20041;-82
2022/07/10 01:28:11;;;;;;;1.38;0.82;;;15.00;99.90;;;;;;5041939;28;20045;-83
2022/07/10 01:30:37;;;;;;;0.70;0.70;;;15.00;99.90;;;;;;5040776;28;20461;-82
2022/07/10 01:33:02;;;;;;;0.77;0.77;;;15.00;99.90;;;;;;5040595;28;20083;-83
2022/07/10 01:35:28;;;;;;;1.10;0.60;;;15.00;99.90;;;;;;5039575;28;20099;-83
2022/07/10 01:37:53;;;;;;;6.00;0.50;;;15.00;99.90;;;;;;5040969;28;20045;-82
2022/07/10 01:40:19;;;;;;;3.97;1.25;;;15.00;99.90;;;;;;5060638;28;20036;-82
2022/07/10 01:42:45;;;;;;;0.57;0.57;;;15.00;99.90;;;;;;5060799;28;20040;-83
2022/07/10 01:45:11;;;;;;;6.95;0.90;;;15.00;99.90;;;;;;5044707;28;20484;-82
2022/07/10 01:47:37;;;;;;;2.63;1.05;;;15.00;99.90;;;;;;5040688;28;20044;-82
2022/07/10 01:50:04;;;;;;;1.42;1.00;;;15.00;99.90;;;;;;5040263;28;20049;-82
2022/07/10 01:52:29;;;;;;;1.25;0.98;;;15.10;99.90;;;;;;5039632;28;20037;-82
2022/07/10 01:54:55;;;;;;;1.88;0.63;;;15.10;99.90;;;;;;5040131;28;20049;-83
2022/07/10 01:57:20;;;;;;;0.77;0.75;;;15.10;99.90;;;;;;5039236;28;20048;-82
2022/07/10 01:59:46;;;;;;;2.72;0.93;;;15.10;99.90;;;;;;5040822;28;20040;-82
2022/07/10 02:02:12;;;;;;;7.57;1.50;;;15.10;99.90;;;;;;5041002;28;20041;-82
2022/07/10 02:04:43;;;;;;;5.63;1.00;;;15.10;99.90;;;;;;5040554;28;20045;-82
2022/07/10 02:07:14;;;;;;;1.70;0.70;;;15.10;99.90;;;;;;5040768;28;20060;-82
2022/07/10 02:09:40;;;;;;;0.88;0.77;;;15.10;99.90;;;;;;5039282;28;20055;-81
2022/07/10 02:12:08;;;;;;;1.58;0.77;;;15.10;99.90;;;;;;5035944;28;20076;-82
2022/07/10 02:14:33;;;;;;;2.05;1.33;;;15.10;99.90;;;;;;5040304;28;20045;-82
2022/07/10 02:16:59;;;;;;;2.05;1.08;;;15.10;99.90;;;;;;5042324;28;20045;-83
2022/07/10 02:19:25;;;;;;;2.80;1.05;;;15.10;99.90;;;;;;5044147;28;20040;-82
2022/07/10 02:21:51;;;;;;;4.85;0.85;;;15.10;99.90;;;;;;5046271;28;20491;-83
2022/07/10 02:24:16;;;;;;;6.53;1.30;;;15.10;99.90;;;;;;5050256;28;20041;-82
2022/07/10 02:26:42;;;;;;;4.05;1.30;;;15.10;99.90;;;;;;5043245;28;20048;-83
2022/07/10 02:29:08;;;;;;;9.95;1.40;;;15.20;99.90;;;;;;5043984;28;20538;-82
2022/07/10 02:31:40;;;;;;;0.57;0.57;;;15.20;99.90;;;;;;5044753;28;20055;-82
2022/07/10 02:34:09;;;;;;;;;;;15.20;99.90;;;;;;5043996;28;20083;-82
2022/07/10 02:36:34;;;;;;;0.50;0.50;;;15.20;99.90;;;;;;5043825;28;20303;-83
2022/07/10 02:39:00;;;;;;;2.58;1.02;;;15.10;99.90;;;;;;5043070;28;20049;-81
2022/07/10 02:41:26;;;;;;;3.90;0.95;;;15.10;99.90;;;;;;5044195;28;20037;-82
2022/07/10 02:43:52;;;;;;;2.60;0.55;;;15.20;99.90;;;;;;5042464;28;20745;-83
2022/07/10 02:46:17;;;;;;;0.80;0.80;;;15.20;99.90;;;;;;5044166;28;20029;-82
2022/07/10 02:48:43;;;;;;;3.95;1.15;;;15.20;99.90;;;;;;5044120;28;20091;-82
2022/07/10 02:51:08;;;;;;;20.42;1.95;;;15.20;99.90;;;;;;5043313;28;20044;-82
2022/07/10 02:53:34;;;;;;;1.33;0.65;;;15.20;99.90;;;;;;5042476;28;20044;-83
2022/07/10 02:56:00;;;;;;;2.28;1.27;;;15.20;99.90;;;;;;5047143;28;20048;-83
2022/07/10 02:58:26;;;;;;;3.95;0.80;;;15.20;99.90;;;;;;5059051;28;20504;-83
2022/07/10 03:00:52;;;;;;;1.17;1.05;;;15.20;99.90;;;;;;5042779;28;20091;-83
2022/07/10 03:03:17;;;;;;;3.83;1.08;;;15.20;99.90;;;;;;5043729;28;20088;-81
2022/07/10 03:05:46;;;;;;;4.20;0.82;;;15.20;99.90;;;;;;5043920;28;20048;-82
2022/07/10 03:08:12;;;;;;;6.10;1.13;;;15.20;99.90;;;;;;5041062;28;20103;-84
2022/07/10 03:10:38;;;;;;;3.22;0.82;;;15.20;99.90;;;;;;5044052;28;20507;-82
2022/07/10 03:13:04;;;;;;;2.83;1.48;;;15.20;99.90;;;;;;5040535;28;20475;-82
2022/07/10 03:15:29;;;;;;;1.98;1.35;;;15.20;99.90;;;;;;5043518;28;20052;-81
2022/07/10 03:17:55;;;;;;;1.42;0.88;;;15.20;99.90;;;;;;5043320;28;20045;-82
2022/07/10 03:20:21;;;;;;;1.77;1.00;;;15.20;99.90;;;;;;5043464;28;20465;-83
2022/07/10 03:22:46;;;;;;;2.08;1.00;;;15.20;99.90;;;;;;5041692;28;20067;-81
2022/07/10 03:25:13;;;;;;;0.93;0.75;;;15.20;99.90;;;;;;5044038;28;20132;-82
2022/07/10 03:27:39;;;;;;;4.65;0.98;;;15.10;99.90;;;;;;5025587;28;20051;-80
2022/07/10 03:30:06;;;;;;;6.63;1.17;;;15.10;99.90;;;;;;5043119;28;20509;-81
2022/07/10 03:32:32;;;;;;;3.03;1.10;;;15.10;99.90;;;;;;5043189;28;20075;-81
2022/07/10 03:34:57;;;;;;;2.58;0.82;;;15.10;99.90;;;;;;5042821;28;20032;-82
2022/07/10 03:37:23;;;;;;;4.15;1.42;;;15.10;99.90;;;;;;5040565;28;20053;-81
2022/07/10 03:39:49;;;;;;;1.30;1.20;;;15.10;99.90;;;;;;5042931;28;20084;-81
2022/07/10 03:42:15;;;;;;;1.42;1.20;;;15.10;99.90;;;;;;5042104;28;20064;-80
2022/07/10 03:44:40;;;;;;;5.65;1.08;;;15.10;99.90;;;;;;5042625;28;20143;-81
2022/07/10 03:47:06;;;;;;;1.77;1.55;;;15.10;99.90;;;;;;5043298;28;20128;-81
2022/07/10 03:49:32;;;;;;;3.80;1.42;;;15.10;99.90;;;;;;5042989;28;20132;-81
2022/07/10 03:52:02;;;;;;;2.95;1.60;;;15.10;99.90;;;;;;5042619;28;20119;-80
2022/07/10 03:54:29;;;;;;;4.38;1.83;;;15.10;99.90;;;;;;5041170;28;20076;-81
2022/07/10 03:59:38;;;;;;;2.78;0.90;;;15.10;99.90;;;;;;5042552;28;20076;-81
2022/07/10 04:02:04;;;;;;;3.45;2.28;;;15.10;99.90;;;;;;5042570;28;20068;-81
2022/07/10 04:04:30;;;;;;;2.30;1.08;;;15.10;99.90;;;;;;5043008;28;20083;-80
2022/07/10 04:06:56;;;;;;;7.32;1.08;;;15.10;99.90;;;;;;5042262;28;20064;-81
2022/07/10 04:09:22;;;;;;;2.17;1.23;;;15.10;99.90;;;;;;5055667;28;20546;-82
2022/07/10 04:11:47;;;;;;;3.15;1.65;;;15.10;99.90;;;;;;5048718;28;20087;-82
2022/07/10 04:14:13;;;;;;;1.67;1.15;;;15.10;99.90;;;;;;5034935;28;20397;-82
2022/07/10 04:16:39;;;;;;;2.38;0.95;;;15.10;99.90;;;;;;5042956;28;20123;-81
2022/07/10 04:19:04;;;;;;;11.55;1.67;;;15.00;99.90;;;;;;5040503;28;20100;-81
2022/07/10 04:21:30;;;;;;;1.38;1.00;;;15.00;99.90;;;;;;5042510;28;20068;-82
2022/07/10 04:23:55;;;;;;;1.60;0.80;;;15.00;99.90;;;;;;5040916;28;20037;-82
2022/07/10 04:26:21;;;;;;;2.65;1.40;;;15.10;99.90;;;;;;5042374;28;20052;-81
2022/07/10 04:28:46;;;;;;;10.25;1.42;;;15.10;99.90;;;;;;5040216;28;20572;-80
2022/07/10 04:31:12;;;;;;;1.30;0.98;;;15.10;99.90;;;;;;5042458;28;20443;-82
2022/07/10 04:33:37;;;;;;;4.82;2.03;;;15.10;99.90;;;;;;5042086;28;20586;-81
2022/07/10 04:36:03;;;;;;;1.75;1.42;;;15.10;99.90;;;;;;5041718;28;20053;-82
2022/07/10 04:38:29;;;;;;;3.33;1.08;;;15.10;99.90;;;;;;5041081;28;20094;-82
2022/07/10 04:40:54;;;;;;;4.93;1.77;;;15.10;99.90;;;;;;5040810;28;20051;-82
2022/07/10 04:43:20;;;;;;;1.98;1.13;;;15.10;99.90;;;;;;5042128;28;20407;-81
2022/07/10 04:45:46;;;;;;;2.97;1.33;;;15.10;99.90;;;;;;5041319;28;20049;-82
2022/07/10 04:48:12;;;;;;;3.35;1.40;;;15.20;99.90;;;;;;5042355;28;20072;-81
2022/07/10 04:50:37;;;;;;;4.00;1.60;;;15.10;99.90;;;;;;5041712;28;20049;-82
2022/07/10 04:53:03;;;;;;;1.40;1.30;;;15.20;99.90;;;;;;5040648;28;20707;-81
2022/07/10 04:55:29;;;;;;;3.88;0.98;;;15.20;99.90;;;;;;5041510;28;20450;-81
2022/07/10 04:57:54;;;;;;;1.85;1.38;;;15.20;99.90;;;;;;5040319;28;20095;-80
2022/07/10 05:00:20;;;;;;;4.13;1.77;;;15.20;99.90;;;;;;5041372;28;20040;-79
2022/07/10 05:02:46;;;;;;;3.88;1.50;;;15.20;99.90;;;;;;5040910;28;20041;-80
2022/07/10 05:05:11;;;;;;;3.97;1.23;;;15.20;99.90;;;;;;5041505;28;20041;-80
2022/07/10 05:07:37;;;;;;;1.35;1.25;;;15.20;99.90;;;;;;5039866;28;20091;-81
2022/07/10 05:10:03;;;;;;;2.42;1.42;;;15.10;99.90;;;;;;5040610;28;20067;-80
2022/07/10 05:12:28;;;;;;;3.95;1.30;;;15.10;99.90;;;;;;5047855;28;20397;-80
2022/07/10 05:14:54;;;;;;;4.72;1.35;;;15.10;99.90;;;;;;5042178;28;20127;-81
2022/07/10 05:17:19;;;;;;;4.43;1.65;;;15.10;99.90;;;;;;5031173;28;20491;-82
2022/07/10 05:19:45;;;;;;;1.88;1.70;;;15.00;99.90;;;;;;5038360;28;20055;-82
2022/07/10 05:22:11;;;;;;;3.13;1.02;;;15.00;99.90;;;;;;5059383;28;20041;-82
2022/07/10 05:24:36;;;;;;;1.10;1.05;;;14.90;99.90;;;;;;5037994;28;20045;-83
2022/07/10 05:27:02;;;;;;;2.75;1.63;;;14.90;99.90;;;;;;5021293;28;20049;-82
2022/07/10 05:29:28;;;;;;;1.30;1.20;;;14.90;99.90;;;;;;5020033;28;20061;-82
2022/07/10 05:31:53;;;;;;;1.58;1.17;;;14.90;99.90;;;;;;5028427;28;20051;-82
2022/07/10 05:34:19;;;;;;;2.92;1.70;;;14.90;99.90;;;;;;5039595;28;20045;-82
2022/07/10 05:36:47;;;;;;;2.00;1.58;;;14.90;99.90;;;;;;5040711;28;20546;-82
2022/07/10 05:39:13;;;;;;;2.83;1.10;;;14.90;99.90;;;;;;5041422;28;20068;-82
2022/07/10 05:41:41;;;;;;;5.05;1.50;;;14.90;99.90;;;;;;5040012;28;20569;-81
2022/07/10 05:44:07;;;;;;;1.30;1.10;;;14.90;99.90;;;;;;5040752;28;20052;-82
2022/07/10 05:46:33;;;;;;;1.88;1.05;;;14.90;99.90;;;;;;5039133;28;20041;-82
2022/07/10 05:48:58;;;;;;;1.95;1.17;;;14.90;99.90;;;;;;5039057;28;20441;-82
2022/07/10 05:51:24;;;;;;;5.32;1.52;;;14.90;99.90;;;;;;5039817;28;20129;-82
2022/07/10 05:53:49;;;;;;;1.80;1.05;;;14.90;99.90;;;;;;5026997;28;20052;-82
2022/07/10 05:56:15;;;;;;;1.42;1.33;;;14.80;99.90;;;;;;5040441;28;20037;-82
2022/07/10 05:58:40;;;;;;;8.18;2.15;;;14.90;99.90;;;;;;5032412;28;20419;-82
2022/07/10 06:01:06;;;;;;;2.78;1.08;;;14.90;99.90;;;;;;5028270;28;20855;-82
2022/07/10 06:03:31;;;;;;;2.65;1.15;;;15.00;99.90;;;;;;5035938;28;20450;-82
2022/07/10 06:05:59;;;;;;;2.40;1.63;;;15.10;99.90;;;;;;5036415;28;20076;-82
2022/07/10 06:08:25;;;;;;;0.85;0.85;;;15.10;99.90;;;;;;5045940;28;20048;-82
2022/07/10 06:10:50;;;;;;;1.40;1.30;;;15.20;99.90;;;;;;5046399;28;20507;-83
2022/07/10 06:13:16;;;;;;;3.75;1.23;;;15.20;99.90;;;;;;5040042;28;20049;-80
2022/07/10 06:15:41;;;;;;;3.03;0.88;;;15.30;99.90;;;;;;5035707;28;20033;-82
2022/07/10 06:18:07;;;;;;;2.20;1.20;;;15.30;99.90;;;;;;5030300;28;20045;-82
2022/07/10 06:20:32;;;;;;;1.70;0.90;;;15.30;99.90;;;;;;5024699;28;20039;-83
2022/07/10 06:22:58;;;;;;;1.77;1.23;;;15.40;99.90;;;;;;5038809;28;20123;-82
2022/07/10 06:25:24;;;;;;;2.53;0.60;;;15.40;99.90;;;;;;5050829;28;20058;-82
2022/07/10 06:27:49;;;;;;;3.05;1.17;;;15.50;99.90;;;;;;5041846;28;20037;-82
2022/07/10 06:30:15;;;;;;;2.53;1.00;;;15.50;99.90;;;;;;5042418;28;20465;-83
2022/07/10 06:32:41;;;;;;;2.67;1.52;;;15.40;99.90;;;;;;5041795;28;20396;-81
2022/07/10 06:35:07;;;;;;;8.20;1.67;;;15.50;99.90;;;;;;5039632;28;20076;-81
2022/07/10 06:37:34;;;;;;;5.18;1.15;;;15.40;99.90;;;;;;5039032;28;20095;-81
2022/07/10 06:39:59;;;;;;;1.92;1.30;;;15.40;99.90;;;;;;5038413;28;20550;-81
2022/07/10 06:42:25;;;;;;;1.13;0.70;;;15.40;99.90;;;;;;5040195;28;20046;-81
2022/07/10 06:44:51;;;;;;;3.00;0.85;;;15.40;99.90;;;;;;5031989;28;20033;-81
2022/07/10 06:50:08;;;;;;;1.17;0.73;;;15.40;99.90;;;;;;5046223;28;20044;-81
2022/07/10 06:52:34;;;;;;;1.35;1.20;;;15.40;99.90;;;;;;5047728;28;20041;-81
2022/07/10 06:55:00;;;;;;;0.80;0.80;;;15.30;99.90;;;;;;5047007;28;20037;-81
2022/07/10 06:57:26;;;;;;;0.70;0.60;;;15.30;99.90;;;;;;5059667;28;20045;-80
2022/07/10 06:59:52;;;;;;;1.05;0.98;;;15.30;99.90;;;;;;5044725;28;20079;-80
2022/07/10 07:02:18;;;;;;;1.25;0.90;;;15.30;99.90;;;;;;5040479;28;20424;-81
2022/07/10 07:04:46;;;;;;;0.68;0.63;;;15.30;99.90;;;;;;5043994;28;20041;-79
2022/07/10 07:07:19;;;;;;;1.70;0.80;;;15.30;99.90;;;;;;5042230;28;20327;-80
2022/07/10 07:09:49;;;;;;;5.45;1.40;;;15.30;99.90;;;;;;5024368;28;20072;-79
2022/07/10 07:12:15;;;;;;;2.03;1.42;;;15.30;99.90;;;;;;5041041;28;20041;-80
2022/07/10 07:14:40;;;;;;;2.97;1.55;;;15.40;99.90;;;;;;5052450;28;20770;-82
2022/07/10 07:17:08;;;;;;;3.00;1.58;;;15.40;99.90;;;;;;5063137;28;20044;-82
2022/07/10 07:25:05;;;;;;;1.00;0.82;;;15.40;99.90;;;;;;5041462;28;20107;-81
2022/07/10 07:27:30;;;;;;;1.83;1.67;;;15.40;99.90;;;;;;5042488;28;20407;-83
2022/07/10 07:29:56;;;;;;;5.90;0.90;;;15.40;99.90;;;;;;5037735;28;20040;-84
2022/07/10 07:32:22;;;;;;;2.15;1.30;;;15.40;99.90;;;;;;5033913;28;20087;-80
2022/07/10 07:34:50;;;;;;;0.95;0.90;;;15.40;99.90;;;;;;5042813;28;20120;-81
2022/07/10 07:37:18;;;;;;;0.70;0.70;;;15.40;99.90;;;;;;5041810;28;20127;-78
2022/07/10 07:39:44;;;;;;;1.30;1.20;;;15.50;99.90;;;;;;5041580;28;20029;-76
2022/07/10 07:42:09;;;;;;;2.28;1.17;;;15.50;99.90;;;;;;5043358;28;20064;-77
2022/07/10 07:44:35;;;;;;;4.93;0.85;;;15.50;99.90;;;;;;5043162;28;20390;-77
2022/07/10 07:47:01;;;;;;;1.75;1.02;;;15.40;99.90;;;;;;5030464;28;20045;-78
2022/07/10 07:49:26;;;;;;;1.73;0.95;;;15.40;99.90;;;;;;5041769;28;20051;-78
2022/07/10 07:51:52;;;;;;;1.98;1.42;;;15.50;99.90;;;;;;5035531;28;20057;-78
2022/07/10 07:54:17;;;;;;;1.50;1.13;;;15.50;99.90;;;;;;5041086;28;20052;-78
2022/07/10 07:56:43;;;;;;;2.30;1.17;;;15.50;99.90;;;;;;5036899;28;20040;-78
2022/07/10 07:59:09;;;;;;;0.63;0.63;;;15.60;99.90;;;;;;5029403;28;20115;-80
2022/07/10 08:01:34;;;;;;;1.92;1.17;;;15.70;99.90;;;;;;5039368;28;20052;-79
2022/07/10 08:04:02;;;;;;;5.50;1.10;;;15.80;99.90;;;;;;5033295;28;20106;-80
2022/07/10 08:06:28;;;;;;;3.40;1.83;;;15.90;99.90;;;;;;5026068;28;20049;-80
2022/07/10 08:08:54;;;;;;;2.17;1.27;;;16.00;99.90;;;;;;5047279;28;20056;-78
2022/07/10 08:11:20;;;;;;;1.50;0.90;;;16.10;99.90;;;;;;5040318;28;20095;-81
2022/07/10 08:13:45;;;;;;;1.70;0.88;;;16.10;99.90;;;;;;5036131;28;20037;-84
2022/07/10 08:16:11;;;;;;;4.68;1.00;;;16.20;99.90;;;;;;5041900;28;20053;-85
2022/07/10 08:18:36;;;;;;;1.10;1.00;;;16.20;99.90;;;;;;5042576;28;20399;-85
2022/07/10 08:21:02;;;;;;;4.65;1.48;;;16.20;99.90;;;;;;5049623;28;20297;-81
2022/07/10 08:23:27;;;;;;;3.55;1.35;;;16.10;99.90;;;;;;5050497;28;20045;-82
2022/07/10 08:25:53;;;;;;;1.52;0.90;;;16.10;99.90;;;;;;5038940;28;20052;-86
2022/07/10 08:28:19;;;;;;;2.75;1.08;;;16.10;99.90;;;;;;5040025;28;20526;-83
2022/07/10 08:30:44;;;;;;;0.95;0.82;;;16.00;99.90;;;;;;5039316;28;20418;-83
2022/07/10 08:33:10;;;;;;;1.25;1.15;;;16.00;99.90;;;;;;5037704;28;20044;-82
2022/07/10 08:35:36;;;;;;;1.75;1.35;;;16.00;99.90;;;;;;5056036;28;20050;-81
2022/07/10 08:38:01;;;;;;;0.88;0.82;;;16.00;99.90;;;;;;5043849;28;20107;-82
2022/07/10 08:40:34;;;;;;;1.50;1.15;;;16.00;99.90;;;;;;5041083;28;20052;-85
2022/07/10 08:43:00;;;;;;;1.60;1.25;;;16.00;99.90;;;;;;5037559;28;20071;-82
2022/07/10 08:45:29;;;;;;;1.95;1.15;;;16.00;99.90;;;;;;5034702;28;20546;-83
2022/07/10 08:48:00;;;;;;;2.92;1.20;;;16.00;99.90;;;;;;5031060;28;20103;-82
2022/07/10 08:50:28;;;;;;;7.65;1.13;;;16.00;99.90;;;;;;5038498;28;20095;-86
2022/07/10 08:53:19;;;;;;;1.67;0.80;;;16.00;99.90;;;;;;5037003;28;20123;-84
2022/07/10 08:55:45;;;;;;;5.57;1.60;;;16.00;99.90;;;;;;5030926;28;20091;-83
2022/07/10 08:58:12;;;;;;;1.98;0.93;;;15.90;99.90;;;;;;5036293;28;20437;-84
2022/07/10 09:00:38;;;;;;;6.03;1.20;;;16.00;99.90;;;;;;5042432;28;20045;-81
2022/07/10 09:03:04;;;;;;;2.67;0.95;;;15.90;99.90;;;;;;5031658;28;20095;-85
2022/07/10 09:05:30;;;;;;;0.93;0.93;;;16.00;99.90;;;;;;5021939;28;20774;-84
2022/07/10 09:07:56;;;;;;;3.55;1.30;;;16.00;99.90;;;;;;5031230;28;20063;-82
2022/07/10 09:10:26;;;;;;;6.78;1.40;;;16.10;99.90;;;;;;5046112;28;20068;-91
2022/07/10 09:12:59;;;;;;;3.30;1.98;;;16.20;99.90;;;;;;5031962;28;20048;-84
2022/07/10 09:15:29;;;;;;;1.50;1.20;;;16.30;99.90;;;;;;5041581;28;20040;-92
2022/07/10 09:18:00;;;;;;;1.95;1.40;;;16.40;99.90;;;;;;5041598;28;20045;-79
2022/07/10 09:20:40;;;;;;;1.90;1.63;;;16.40;99.90;;;;;;5040761;28;20049;-79
2022/07/10 09:23:15;;;;;;;2.35;1.30;;;16.50;99.90;;;;;;5038938;28;20149;-78
2022/07/10 09:25:41;;;;;;;1.35;1.10;;;16.50;99.90;;;;;;5040545;28;20080;-79
2022/07/10 09:28:06;;;;;;;2.45;1.27;;;16.50;99.90;;;;;;5058508;28;20149;-86
2022/07/10 09:30:33;;;;;;;4.32;1.45;;;16.50;99.90;;;;;;5039665;28;20487;-86
2022/07/10 09:33:27;;;;;;;1.27;0.98;;;16.50;99.90;;;;;;5044776;28;20048;-82
2022/07/10 09:36:04;;;;;;;1.38;1.23;;;16.60;99.90;;;;;;5035521;28;20037;-83
2022/07/10 09:38:39;;;;;;;3.35;1.35;;;16.60;99.90;;;;;;5028977;28;20454;-83
2022/07/10 09:41:23;;;;;;;1.75;1.45;;;16.50;99.90;;;;;;5023188;28;20048;-85
2022/07/10 09:43:51;;;;;;;3.67;1.63;;;16.60;99.90;;;;;;5026149;28;20053;-85
2022/07/10 09:46:18;;;;;;;1.52;1.15;;;16.60;99.90;;;;;;5034365;28;20036;-85
2022/07/10 09:48:44;;;;;;;1.63;0.82;;;16.60;99.90;;;;;;5038217;28;20115;-76
2022/07/10 09:51:10;;;;;;;1.20;1.10;;;16.60;99.90;;;;;;5039430;28;20120;-83
2022/07/10 09:53:41;;;;;;;0.88;0.88;;;16.70;99.90;;;;;;5038974;28;20036;-85
2022/07/10 09:56:09;;;;;;;3.05;1.30;;;16.70;99.90;;;;;;5029119;28;20511;-84
2022/07/10 09:58:35;;;;;;;2.25;2.15;;;16.70;99.90;;;;;;5037669;28;20083;-84
2022/07/10 10:01:06;;;;;;;1.58;1.10;;;16.70;99.90;;;;;;5038958;28;20052;-83
2022/07/10 10:03:43;;;;;;;1.00;0.90;;;16.70;99.90;;;;;;5044022;28;20048;-83
2022/07/10 10:06:14;;;;;;;2.00;0.95;;;16.70;99.90;;;;;;5036409;28;20045;-84
2022/07/10 10:08:53;;;;;;;1.57;0.83;;;16.60;99.90;;;;;;5022392;28;20037;-80
2022/07/10 10:11:23;;;;;;;1.25;1.13;;;16.60;99.90;;;;;;5038873;28;20045;-85
2022/07/10 10:13:50;;;;;;;3.95;0.80;;;16.70;99.90;;;;;;5036357;28;20041;-85
2022/07/10 10:16:16;;;;;;;1.85;1.27;;;16.70;99.90;;;;;;5054397;28;20082;-86
2022/07/10 10:21:28;;;;;;;1.90;1.58;;;16.70;99.90;;;;;;5037927;28;20095;-83
2022/07/10 10:23:55;;;;;;;4.70;1.10;;;16.70;99.90;;;;;;5038509;28;20450;-84
2022/07/10 10:26:22;;;;;;;4.03;1.08;;;16.70;99.90;;;;;;5038850;28;20582;-80
2022/07/10 10:28:50;;;;;;;1.67;1.00;;;16.60;99.90;;;;;;5036451;28;20076;-80
2022/07/10 10:31:18;;;;;;;1.38;1.20;;;16.60;99.90;;;;;;5040188;28;20104;-79
2022/07/10 10:33:45;;;;;;;1.23;1.13;;;16.60;99.90;;;;;;5039335;28;20049;-80
2022/07/10 10:36:34;;;;;;;1.73;1.00;;;16.60;99.90;;;;;;5039925;28;20063;-80
2022/07/10 10:39:02;;;;;;;1.10;0.70;;;16.60;99.90;;;;;;5025174;28;20045;-80
2022/07/10 10:41:31;;;;;;;1.40;1.00;;;16.60;99.90;;;;;;5044135;28;20029;-80
2022/07/10 10:44:10;;;;;;;1.40;1.30;;;16.60;99.90;;;;;;5043792;28;20124;-80
2022/07/10 10:47:05;;;;;;;1.60;0.95;;;16.60;99.90;;;;;;5043671;28;20055;-79
2022/07/10 10:49:56;;;;;;;0.90;0.80;;;16.70;99.90;;;;;;5063886;28;20604;-80
2022/07/10 10:52:22;;;;;;;0.80;0.80;;;16.70;99.90;;;;;;5047280;28;20037;-80
2022/07/10 10:54:57;;;;;;;1.25;0.90;;;16.70;99.90;;;;;;5046943;28;20040;-79
2022/07/10 10:57:51;;;;;;;5.30;1.20;;;16.80;99.90;;;;;;5042570;28;20053;-86
2022/07/10 11:00:35;;;;;;;1.80;0.90;;;16.80;99.90;;;;;;5052826;28;20035;-80
2022/07/10 11:03:18;;;;;;;2.38;1.40;;;16.80;99.90;;;;;;5050838;28;20764;-82
2022/07/10 11:05:44;;;;;;;2.90;0.52;;;16.90;99.90;;;;;;5052062;28;20048;-80
2022/07/10 11:08:11;;;;;;;2.95;0.88;;;16.90;99.90;;;;;;5043090;28;20053;-79
2022/07/10 11:10:40;;;;;;;5.10;1.08;;;16.90;99.90;;;;;;5063428;28;20479;-84
2022/07/10 11:13:09;;;;;;;1.05;0.95;;;16.90;99.90;;;;;;5045112;28;20127;-77
2022/07/10 11:15:41;;;;;;;4.13;0.68;;;17.00;99.90;;;;;;5038762;28;20045;-77
2022/07/10 11:18:12;;;;;;;2.75;0.60;;;17.00;99.90;;;;;;5036113;28;20038;-78
2022/07/10 11:20:45;;;;;;;1.13;1.00;;;17.00;99.90;;;;;;5044287;28;20069;-79
2022/07/10 11:23:38;;;;;;;1.48;1.13;;;17.10;99.90;;;;;;5039095;28;20052;-80
2022/07/10 11:26:11;;;;;;;2.08;1.77;;;17.10;99.90;;;;;;5040178;28;20049;-85
2022/07/10 11:28:54;;;;;;;1.75;0.93;;;17.10;99.90;;;;;;5034837;28;20139;-84
2022/07/10 11:31:21;;;;;;;0.40;0.40;;;17.20;99.90;;;;;;5036749;28;20047;-84
2022/07/10 11:33:48;;;;;;;2.35;0.90;;;17.20;99.90;;;;;;5039765;28;20047;-84
2022/07/10 11:36:17;;;;;;;0.50;0.50;;;17.20;99.90;;;;;;5035781;28;20033;-82
2022/07/10 11:38:46;;;;;;;4.55;0.90;;;17.20;99.90;;;;;;5027996;28;20042;-82
2022/07/10 11:41:19;;;;;;;1.23;0.80;;;17.20;99.90;;;;;;5032901;28;20098;-84
2022/07/10 11:43:52;;;;;;;2.30;1.25;;;17.20;99.90;;;;;;5042810;28;20069;-83
2022/07/10 11:46:21;;;;;;;1.20;0.98;;;17.30;99.90;;;;;;5042773;28;20045;-83
2022/07/10 11:48:47;;;;;;;2.38;0.90;;;17.30;99.90;;;;;;5040643;28;20569;-84
2022/07/10 11:51:22;;;;;;;1.23;0.77;;;17.30;99.90;;;;;;5033159;28;20492;-82
2022/07/10 11:53:57;;;;;;;1.60;0.88;;;17.30;99.90;;;;;;5034058;28;20076;-84
2022/07/10 11:56:24;;;;;;;0.98;0.77;;;17.40;99.90;;;;;;5035992;28;20052;-83
2022/07/10 11:59:00;;;;;;;1.10;0.95;;;17.40;99.90;;;;;;5042245;28;20083;-82
2022/07/10 12:01:28;;;;;;;1.15;0.80;;;17.40;99.90;;;;;;5017867;28;20057;-81
2022/07/10 12:04:08;;;;;;;4.78;1.15;;;17.50;99.90;;;;;;5038898;28;20787;-82
2022/07/10 12:06:37;;;;;;;1.08;0.70;;;17.60;99.90;;;;;;5029156;28;20061;-88
2022/07/10 12:09:10;;;;;;;3.50;0.90;;;17.60;99.90;;;;;;5042825;28;20044;-87
2022/07/10 12:11:36;;;;;;;1.80;0.60;;;17.60;99.90;;;;;;5058097;28;20056;-84
2022/07/10 12:14:17;;;;;;;0.73;0.73;;;17.70;99.90;;;;;;5040885;28;20108;-82
2022/07/10 12:16:43;;;;;;;1.25;1.15;;;17.70;99.90;;;;;;5030013;28;20084;-82
2022/07/10 12:19:12;;;;;;;2.00;0.80;;;17.70;99.90;;;;;;5040012;28;20025;-81
2022/07/10 12:21:40;;;;;;;1.90;0.93;;;17.80;99.90;;;;;;5021788;28;20056;-83
2022/07/10 12:24:06;;;;;;;2.47;1.52;;;17.90;99.90;;;;;;5039782;28;20927;-83
2022/07/10 12:26:38;;;;;;;0.73;0.50;;;17.90;99.90;;;;;;5040391;28;20103;-82
2022/07/10 12:29:04;;;;;;;0.70;0.70;;;18.00;99.90;;;;;;5037219;28;20874;-83
2022/07/10 12:31:31;;;;;;;0.60;0.60;;;18.20;99.90;;;;;;5041193;28;20084;-79
2022/07/10 12:34:02;;;;;;;0.93;0.82;;;18.20;99.90;;;;;;5039669;28;20033;-78
2022/07/10 12:36:49;;;;;;;0.70;0.70;;;18.30;99.90;;;;;;5048068;28;20495;-84
2022/07/10 12:39:25;;;;;;;0.70;0.70;;;18.40;99.90;;;;;;5033225;28;20372;-84
2022/07/10 12:42:02;;;;;;;1.65;0.88;;;18.40;99.90;;;;;;5038489;28;20053;-85
2022/07/10 12:44:46;;;;;;;1.65;1.00;;;18.50;99.90;;;;;;5034061;28;20040;-79
2022/07/10 12:47:14;;;;;;;1.33;0.80;;;18.50;99.90;;;;;;5030418;28;20056;-82
2022/07/10 12:50:12;;;;;;;0.63;0.63;;;18.60;99.90;;;;;;5038840;28;20041;-81
2022/07/10 12:52:38;;;;;;;0.93;0.75;;;18.60;99.90;;;;;;5032182;28;20175;-82
2022/07/10 12:55:14;;;;;;;3.42;0.90;;;18.70;99.90;;;;;;5034913;28;20037;-81
2022/07/10 12:57:47;;;;;;;1.77;1.15;;;18.70;99.90;;;;;;5020452;28;20052;-80
2022/07/10 13:00:14;;;;;;;1.23;1.00;;;18.70;99.90;;;;;;5040255;28;20056;-81
2022/07/10 13:02:40;;;;;;;3.50;0.98;;;18.80;99.90;;;;;;5040586;28;20052;-81
2022/07/10 13:05:05;;;;;;;2.70;1.02;;;18.80;99.90;;;;;;5037759;28;20441;-81